Golden City, Missouri
Current Conditions -  °F | °C
As of 9:53 PM on Tuesday 25 Nov 2014 (Local Time) from KJLN Reporting Station
Clear Clear  
Wind Chill: 28°   Ceiling: Unl
Heat Index: 35°   Visibility: 10mi
Dew Point: 21°   Wind: 9mph
Humidity: 57%   Direction: 150°SSE
Pressure: 30.1"   Gusts: NA
Location:  37.39°N, 94.09°W
Report Text: KJLN 260353Z AUTO 15008KT 10SM CLR 02/M06 A3010 RMK AO2 SLP200 T00171061
Loading
Personal Weather Stations






























Interactive Weather Map New forecast layout! Learn more

10-Day Weather Forecast

Advertisements
Track Severe Weather on mobile